createdAt,value
2022-12-16T00:01:26.277Z,90.78
2022-12-16T00:03:57.682Z,90.82
2022-12-16T00:06:30.946Z,90.78
2022-12-16T00:09:01.101Z,90.84
2022-12-16T00:11:32.102Z,90.78
2022-12-16T00:14:01.192Z,90.70
2022-12-16T00:16:30.007Z,90.62
2022-12-16T00:18:58.751Z,90.74
2022-12-16T00:21:29.788Z,90.50
2022-12-16T00:23:58.973Z,90.33
2022-12-16T00:26:29.777Z,90.43
2022-12-16T00:28:58.479Z,90.61
2022-12-16T00:31:27.810Z,90.66
2022-12-16T00:33:58.466Z,90.63
2022-12-16T00:36:27.233Z,90.67
2022-12-16T00:38:55.787Z,90.66
2022-12-16T00:41:24.381Z,90.68
2022-12-16T00:43:52.977Z,90.56
2022-12-16T00:46:22.045Z,90.68
2022-12-16T00:48:50.702Z,90.72
2022-12-16T00:51:20.485Z,90.76
2022-12-16T00:53:49.090Z,90.81
2022-12-16T00:56:20.700Z,90.92
2022-12-16T00:58:49.231Z,90.93
2022-12-16T01:01:17.989Z,90.77
2022-12-16T01:03:46.784Z,90.73
2022-12-16T01:06:17.997Z,90.83
2022-12-16T01:08:48.915Z,90.64
2022-12-16T01:11:19.937Z,90.76
2022-12-16T01:13:52.654Z,90.75
2022-12-16T01:16:23.848Z,90.85
2022-12-16T01:18:53.503Z,90.90
2022-12-16T01:21:24.033Z,90.94
2022-12-16T01:23:52.999Z,91.02
2022-12-16T01:26:23.973Z,91.00
2022-12-16T01:28:52.588Z,90.99
2022-12-16T01:31:23.582Z,91.09
2022-12-16T01:33:52.234Z,91.26
2022-12-16T01:36:20.772Z,91.14
2022-12-16T01:38:49.623Z,91.28
2022-12-16T01:41:19.342Z,91.34
2022-12-16T01:43:47.990Z,91.16
2022-12-16T01:46:23.774Z,91.18
2022-12-16T01:49:02.442Z,90.90
2022-12-16T01:51:47.517Z,91.00
2022-12-16T01:54:25.382Z,90.85
2022-12-16T01:57:04.823Z,90.85
2022-12-16T01:59:37.639Z,91.08
2022-12-16T02:02:06.366Z,90.90
2022-12-16T02:04:34.985Z,90.97
2022-12-16T02:07:03.504Z,90.91
2022-12-16T02:09:32.056Z,90.86
2022-12-16T02:12:46.690Z,90.70
2022-12-16T02:15:59.107Z,90.90
2022-12-16T02:18:46.704Z,90.88
2022-12-16T02:21:18.101Z,90.85
2022-12-16T02:24:39.181Z,90.82
2022-12-16T02:27:28.854Z,91.03
2022-12-16T02:30:44.088Z,91.16
2022-12-16T02:33:51.072Z,91.16
2022-12-16T02:36:49.366Z,91.11
2022-12-16T02:39:29.715Z,91.17
2022-12-16T02:42:19.782Z,91.26
2022-12-16T02:45:00.135Z,91.20
2022-12-16T02:47:30.491Z,91.32
2022-12-16T02:49:59.327Z,90.97
2022-12-16T02:52:32.943Z,91.19
2022-12-16T02:55:06.876Z,91.34
2022-12-16T02:57:59.386Z,91.20
2022-12-16T03:00:40.899Z,91.22
2022-12-16T03:03:24.003Z,91.52
2022-12-16T03:05:55.588Z,91.41
2022-12-16T03:08:35.809Z,91.43
2022-12-16T03:11:08.335Z,91.35
2022-12-16T03:13:46.391Z,91.35
2022-12-16T03:16:18.737Z,91.24
2022-12-16T03:18:54.898Z,91.41
2022-12-16T03:21:31.054Z,91.34
2022-12-16T03:24:03.355Z,91.36
2022-12-16T03:26:46.376Z,91.53
2022-12-16T03:29:51.066Z,91.49
2022-12-16T03:32:53.341Z,91.39
2022-12-16T03:35:49.745Z,91.61
2022-12-16T03:38:19.878Z,91.55
2022-12-16T03:40:49.939Z,91.48
2022-12-16T03:43:19.210Z,91.57
2022-12-16T03:45:53.918Z,91.52
2022-12-16T03:48:26.309Z,91.66
2022-12-16T03:50:55.697Z,91.48
2022-12-16T03:53:26.530Z,91.40
2022-12-16T03:55:55.301Z,91.53
2022-12-16T03:58:23.822Z,91.45
2022-12-16T04:00:53.530Z,91.52
2022-12-16T04:03:26.740Z,91.48
2022-12-16T04:05:55.345Z,91.36
2022-12-16T04:08:23.842Z,91.45
2022-12-16T04:11:11.948Z,91.48
2022-12-16T04:13:59.161Z,91.38
2022-12-16T04:16:48.459Z,91.58
2022-12-16T04:19:52.170Z,91.38
2022-12-16T04:22:48.435Z,91.48
2022-12-16T04:25:22.197Z,91.33
2022-12-16T04:27:50.766Z,91.48
2022-12-16T04:30:21.650Z,91.59
2022-12-16T04:33:21.393Z,91.46
2022-12-16T04:36:08.990Z,91.41
2022-12-16T04:38:55.939Z,91.44
2022-12-16T04:41:43.166Z,91.43
2022-12-16T04:44:30.115Z,91.21
2022-12-16T04:47:17.267Z,91.11
2022-12-16T04:50:04.519Z,91.30
2022-12-16T04:52:51.723Z,91.24
2022-12-16T04:55:43.288Z,91.34
2022-12-16T04:58:30.606Z,91.09
2022-12-16T05:01:18.196Z,91.19
2022-12-16T05:04:05.481Z,91.03
2022-12-16T05:06:52.639Z,90.88
2022-12-16T05:09:39.676Z,90.79
2022-12-16T05:12:26.930Z,90.87
2022-12-16T05:15:14.035Z,90.92
2022-12-16T05:18:01.194Z,90.92
2022-12-16T05:20:48.129Z,90.87
2022-12-16T05:23:35.752Z,90.82
2022-12-16T05:26:23.155Z,90.53
2022-12-16T05:29:10.097Z,90.65
2022-12-16T05:31:57.233Z,90.77
2022-12-16T05:34:44.680Z,90.72
2022-12-16T05:37:31.656Z,90.77
2022-12-16T05:40:18.979Z,90.72
2022-12-16T05:43:14.921Z,90.58
2022-12-16T05:46:03.936Z,90.41
2022-12-16T05:48:51.110Z,90.57
2022-12-16T05:51:38.230Z,90.65
2022-12-16T05:54:25.277Z,90.69
2022-12-16T05:57:12.581Z,90.73
2022-12-16T05:59:59.902Z,90.51
2022-12-16T06:02:47.105Z,90.59
2022-12-16T06:05:34.506Z,90.55
2022-12-16T06:08:21.881Z,90.77
2022-12-16T06:11:09.055Z,90.75
2022-12-16T06:13:56.084Z,90.77
2022-12-16T06:16:43.682Z,90.68
2022-12-16T06:19:30.991Z,90.69
2022-12-16T06:22:18.295Z,90.57
2022-12-16T06:25:05.836Z,90.72
2022-12-16T06:27:53.257Z,90.89
2022-12-16T06:30:40.692Z,91.02
2022-12-16T06:33:27.626Z,91.05
2022-12-16T06:36:14.849Z,91.06
2022-12-16T06:39:02.251Z,91.25
2022-12-16T06:41:49.603Z,91.02
2022-12-16T06:44:36.762Z,91.10
2022-12-16T06:47:24.226Z,91.25
2022-12-16T06:50:11.346Z,91.23
2022-12-16T06:53:02.065Z,91.25
2022-12-16T06:55:49.627Z,91.41
2022-12-16T06:58:50.612Z,91.45
2022-12-16T07:01:37.701Z,91.64
2022-12-16T07:04:24.802Z,91.67
2022-12-16T07:07:14.378Z,91.76
2022-12-16T07:10:01.758Z,91.67
2022-12-16T07:12:49.025Z,92.00
2022-12-16T07:15:36.130Z,92.05
2022-12-16T07:18:23.486Z,91.99
2022-12-16T07:21:10.541Z,92.28
2022-12-16T07:23:57.723Z,92.09
2022-12-16T07:26:44.729Z,92.25
2022-12-16T07:29:32.167Z,92.37
2022-12-16T07:32:19.046Z,92.28
2022-12-16T07:35:06.035Z,92.34
2022-12-16T07:37:53.198Z,92.73
2022-12-16T07:40:40.140Z,93.15
2022-12-16T07:43:55.673Z,93.14
2022-12-16T07:46:42.991Z,93.09
2022-12-16T07:49:30.456Z,93.21
2022-12-16T07:52:17.958Z,93.40
2022-12-16T07:55:05.105Z,93.19
2022-12-16T07:57:52.167Z,93.26
2022-12-16T08:00:39.493Z,93.11
2022-12-16T08:03:26.868Z,93.17
2022-12-16T08:06:13.971Z,93.02
2022-12-16T08:09:00.979Z,92.45
2022-12-16T08:11:48.158Z,92.38
2022-12-16T08:14:35.345Z,92.03
2022-12-16T08:17:22.637Z,92.21
2022-12-16T08:20:09.683Z,92.47
2022-12-16T08:22:59.101Z,92.57
2022-12-16T08:25:46.504Z,92.32
2022-12-16T08:28:33.909Z,92.45
2022-12-16T08:31:21.318Z,92.08
2022-12-16T08:34:08.950Z,91.67
2022-12-16T08:36:56.261Z,91.51
2022-12-16T08:39:43.248Z,91.58
2022-12-16T08:42:30.538Z,91.00
2022-12-16T08:45:17.916Z,91.11
2022-12-16T08:48:04.862Z,91.33
2022-12-16T08:50:51.883Z,91.26
2022-12-16T08:53:39.219Z,91.08
2022-12-16T08:56:26.406Z,91.20
2022-12-16T08:59:13.650Z,90.87
2022-12-16T09:02:00.779Z,91.09
2022-12-16T09:04:48.357Z,91.27
2022-12-16T09:07:35.597Z,91.06
2022-12-16T09:10:24.447Z,91.16
2022-12-16T09:13:11.636Z,91.06
2022-12-16T09:15:58.587Z,90.66
2022-12-16T09:18:45.769Z,90.86
2022-12-16T09:21:33.525Z,90.67
2022-12-16T09:24:20.647Z,90.49
2022-12-16T09:27:07.998Z,90.31
2022-12-16T09:29:55.630Z,90.15
2022-12-16T09:32:43.363Z,90.16
2022-12-16T09:35:30.578Z,90.13
2022-12-16T09:38:17.710Z,90.49
2022-12-16T09:41:04.918Z,90.66
2022-12-16T09:44:10.159Z,90.74
2022-12-16T09:47:25.196Z,91.24
2022-12-16T09:50:13.204Z,91.57
2022-12-16T09:53:22.663Z,91.37
2022-12-16T09:56:10.593Z,91.75
2022-12-16T09:59:09.943Z,91.97
2022-12-16T10:01:57.652Z,91.99
2022-12-16T10:04:45.355Z,91.79
2022-12-16T10:07:39.043Z,92.01
2022-12-16T10:11:06.143Z,92.49
2022-12-16T10:14:06.599Z,92.75
2022-12-16T10:17:21.812Z,92.73
2022-12-16T10:20:38.568Z,92.49
2022-12-16T10:24:04.236Z,92.52
2022-12-16T10:27:18.636Z,92.29
2022-12-16T10:30:05.621Z,92.08
2022-12-16T10:33:05.875Z,92.06
2022-12-16T10:36:07.590Z,91.68
2022-12-16T10:39:08.428Z,91.46
2022-12-16T10:42:04.524Z,91.53
2022-12-16T10:45:14.039Z,91.55
2022-12-16T10:48:01.478Z,91.53
2022-12-16T10:50:48.927Z,91.48
2022-12-16T10:53:44.363Z,91.46
2022-12-16T10:57:29.042Z,91.55
2022-12-16T11:00:32.221Z,91.58
2022-12-16T11:03:44.726Z,91.56
2022-12-16T11:06:41.757Z,91.54
2022-12-16T11:09:48.680Z,91.67
2022-12-16T11:12:47.769Z,91.60
2022-12-16T11:15:51.049Z,91.74
2022-12-16T11:18:41.515Z,91.70
2022-12-16T11:21:36.248Z,91.60
2022-12-16T11:24:33.654Z,91.69
2022-12-16T11:27:24.717Z,91.74
2022-12-16T11:30:18.381Z,91.47
2022-12-16T11:33:12.550Z,91.74
2022-12-16T11:36:05.545Z,91.62
2022-12-16T11:39:04.809Z,91.97
2022-12-16T11:42:00.747Z,91.94
2022-12-16T11:45:10.666Z,92.04
2022-12-16T11:48:19.414Z,92.03
2022-12-16T11:51:18.819Z,91.85
2022-12-16T11:54:36.414Z,91.81
2022-12-16T11:57:32.717Z,92.27
2022-12-16T12:00:21.499Z,91.74
2022-12-16T12:03:14.521Z,91.65
2022-12-16T12:06:11.402Z,91.46
2022-12-16T12:09:22.857Z,90.96
2022-12-16T12:12:47.071Z,90.66
2022-12-16T12:15:53.808Z,90.62
2022-12-16T12:19:08.356Z,90.61
2022-12-16T12:22:18.813Z,90.28
2022-12-16T12:25:25.285Z,90.32
2022-12-16T12:29:18.396Z,90.57
2022-12-16T12:32:17.655Z,90.79
2022-12-16T12:35:46.432Z,90.75
2022-12-16T12:38:48.531Z,90.17
2022-12-16T12:42:11.203Z,90.31
2022-12-16T12:45:34.707Z,90.75
2022-12-16T12:49:12.956Z,90.65
2022-12-16T12:52:28.936Z,91.37
2022-12-16T12:55:29.009Z,91.60
2022-12-16T12:58:19.017Z,91.45
2022-12-16T13:01:14.632Z,91.88
2022-12-16T13:04:07.954Z,91.70
2022-12-16T13:06:56.589Z,92.01
2022-12-16T13:09:52.314Z,92.11
2022-12-16T13:12:41.072Z,92.05
2022-12-16T13:15:53.005Z,92.04
2022-12-16T13:18:51.727Z,92.26
2022-12-16T13:21:57.542Z,92.09
2022-12-16T13:24:55.866Z,91.78
2022-12-16T13:27:45.816Z,91.98
2022-12-16T13:30:41.489Z,91.89
2022-12-16T13:33:50.071Z,91.82
2022-12-16T13:36:37.490Z,91.65
2022-12-16T13:39:42.741Z,91.94
2022-12-16T13:43:01.092Z,92.17
2022-12-16T13:45:55.978Z,92.25
2022-12-16T13:49:00.568Z,92.04
2022-12-16T13:51:57.077Z,92.12
2022-12-16T13:55:00.789Z,92.21
2022-12-16T13:57:50.607Z,92.20
2022-12-16T14:00:42.745Z,92.18
2022-12-16T14:04:00.036Z,92.46
2022-12-16T14:06:50.339Z,92.67
2022-12-16T14:09:51.648Z,92.58
2022-12-16T14:13:06.838Z,92.88
2022-12-16T14:16:33.330Z,92.64
2022-12-16T14:19:34.617Z,93.08
2022-12-16T14:22:55.347Z,93.16
2022-12-16T14:25:44.281Z,93.40
2022-12-16T14:28:54.461Z,93.49
2022-12-16T14:31:52.738Z,93.74
2022-12-16T14:34:44.317Z,93.88
2022-12-16T14:37:57.431Z,93.92
2022-12-16T14:40:49.884Z,94.13
2022-12-16T14:43:39.729Z,94.23
2022-12-16T14:46:45.741Z,94.39
2022-12-16T14:49:48.481Z,94.41
2022-12-16T14:52:39.391Z,94.57
2022-12-16T14:55:44.654Z,94.77
2022-12-16T14:58:43.453Z,94.94
2022-12-16T15:01:37.632Z,95.06
2022-12-16T15:04:36.153Z,95.16
2022-12-16T15:07:31.126Z,95.27
2022-12-16T15:10:19.650Z,95.19
2022-12-16T15:13:08.353Z,95.46
2022-12-16T15:16:02.793Z,95.65
2022-12-16T15:18:59.566Z,95.55
2022-12-16T15:21:46.901Z,95.72
2022-12-16T15:24:37.891Z,95.92
2022-12-16T15:27:40.376Z,95.81
2022-12-16T15:31:02.255Z,95.68
2022-12-16T15:33:53.299Z,95.83
2022-12-16T15:36:54.585Z,96.11
2022-12-16T15:40:00.642Z,96.03
2022-12-16T15:42:51.737Z,95.94
2022-12-16T15:45:49.573Z,95.94
2022-12-16T15:48:49.492Z,96.01
2022-12-16T15:51:48.755Z,96.05
2022-12-16T15:54:43.745Z,96.06
2022-12-16T15:57:52.811Z,96.01
2022-12-16T16:00:44.918Z,96.02
2022-12-16T16:03:49.569Z,96.06
2022-12-16T16:06:45.334Z,96.23
2022-12-16T16:09:32.367Z,96.32
2022-12-16T16:12:19.525Z,96.38
2022-12-16T16:15:07.112Z,96.45
2022-12-16T16:17:54.378Z,96.54
2022-12-16T16:20:41.365Z,96.56
2022-12-16T16:23:29.514Z,96.66
2022-12-16T16:26:17.145Z,96.55
2022-12-16T16:29:04.272Z,96.52
2022-12-16T16:31:51.533Z,96.58
2022-12-16T16:34:38.861Z,96.64
2022-12-16T16:37:44.024Z,96.78
2022-12-16T16:40:49.565Z,96.76
2022-12-16T16:43:37.314Z,96.72
2022-12-16T16:46:38.417Z,96.72
2022-12-16T16:49:30.843Z,96.69
2022-12-16T16:52:18.047Z,96.73
2022-12-16T16:55:05.085Z,96.76
2022-12-16T16:57:55.526Z,96.80
2022-12-16T17:00:54.410Z,96.72
2022-12-16T17:03:42.551Z,96.66
2022-12-16T17:06:29.862Z,96.47
2022-12-16T17:09:17.345Z,96.52
2022-12-16T17:12:04.319Z,96.48
2022-12-16T17:14:51.274Z,96.38
2022-12-16T17:17:38.605Z,96.54
2022-12-16T17:20:26.651Z,96.47
2022-12-16T17:23:13.829Z,96.61
2022-12-16T17:26:01.164Z,96.50
2022-12-16T17:28:48.487Z,96.55
2022-12-16T17:31:35.915Z,96.52
2022-12-16T17:34:23.300Z,96.82
2022-12-16T17:37:10.577Z,96.67
2022-12-16T17:39:57.616Z,96.63
2022-12-16T17:42:46.767Z,96.58
2022-12-16T17:45:34.064Z,96.53
2022-12-16T17:48:21.314Z,96.52
2022-12-16T17:51:08.473Z,96.73
2022-12-16T17:54:00.395Z,96.79
2022-12-16T17:56:49.291Z,97.00
2022-12-16T17:59:36.596Z,96.89
2022-12-16T18:02:23.949Z,97.00
2022-12-16T18:05:11.318Z,96.92
2022-12-16T18:07:58.888Z,97.04
2022-12-16T18:10:46.175Z,97.16
2022-12-16T18:13:33.599Z,97.42
2022-12-16T18:16:21.302Z,97.34
2022-12-16T18:19:09.447Z,97.68
2022-12-16T18:21:56.506Z,97.45
2022-12-16T18:24:48.359Z,97.56
2022-12-16T18:27:35.953Z,97.78
2022-12-16T18:30:23.805Z,97.72
2022-12-16T18:33:10.810Z,97.86
2022-12-16T18:35:58.056Z,97.73
2022-12-16T18:38:45.743Z,97.59
2022-12-16T18:41:37.038Z,97.72
2022-12-16T18:44:26.095Z,97.74
2022-12-16T18:47:13.269Z,97.71
2022-12-16T18:50:00.855Z,98.05
2022-12-16T18:52:48.276Z,97.94
2022-12-16T18:55:35.539Z,98.08
2022-12-16T18:58:49.855Z,98.23
2022-12-16T19:01:30.826Z,98.14
2022-12-16T19:04:18.331Z,98.06
2022-12-16T19:07:05.584Z,98.15
2022-12-16T19:09:52.742Z,98.30
2022-12-16T19:12:40.119Z,98.28
2022-12-16T19:15:27.730Z,98.32
2022-12-16T19:18:15.024Z,98.33
2022-12-16T19:21:01.993Z,98.38
2022-12-16T19:23:49.084Z,98.16
2022-12-16T19:26:36.099Z,98.13
2022-12-16T19:29:24.944Z,98.23
2022-12-16T19:32:12.547Z,98.02
2022-12-16T19:34:59.862Z,98.23
2022-12-16T19:37:46.847Z,98.24
2022-12-16T19:40:34.269Z,98.13
2022-12-16T19:43:21.566Z,98.06
2022-12-16T19:46:15.408Z,97.99
2022-12-16T19:49:02.711Z,98.07
2022-12-16T19:51:49.815Z,98.12
2022-12-16T19:54:37.071Z,98.07
2022-12-16T19:57:24.289Z,98.19
2022-12-16T20:00:11.627Z,98.14
2022-12-16T20:02:58.825Z,98.30
2022-12-16T20:05:46.161Z,98.17
2022-12-16T20:08:33.569Z,98.38
2022-12-16T20:11:26.488Z,98.30
2022-12-16T20:14:15.726Z,98.35
2022-12-16T20:17:02.756Z,98.37
2022-12-16T20:19:49.786Z,98.32
2022-12-16T20:22:36.788Z,98.32
2022-12-16T20:25:24.471Z,98.44
2022-12-16T20:28:11.617Z,98.35
2022-12-16T20:30:58.926Z,98.21
2022-12-16T20:33:46.418Z,98.12
2022-12-16T20:36:34.201Z,98.18
2022-12-16T20:39:22.289Z,97.95
2022-12-16T20:42:09.724Z,98.11
2022-12-16T20:44:56.811Z,98.24
2022-12-16T20:47:44.298Z,98.23
2022-12-16T20:50:31.451Z,98.24
2022-12-16T20:53:18.792Z,98.22
2022-12-16T20:56:06.153Z,98.19
2022-12-16T21:02:22.688Z,98.08
2022-12-16T21:05:10.708Z,98.13
2022-12-16T21:07:58.099Z,98.30
2022-12-16T21:11:02.431Z,98.40
2022-12-16T21:13:49.992Z,98.46
2022-12-16T21:14:42.635Z,98.17
2022-12-16T21:16:37.547Z,98.54
2022-12-16T21:19:31.126Z,98.56
2022-12-16T21:22:20.242Z,98.43
2022-12-16T21:25:07.496Z,98.35
2022-12-16T21:27:55.526Z,98.52
2022-12-16T21:30:42.791Z,98.36
2022-12-16T21:33:39.728Z,98.42
2022-12-16T21:36:27.387Z,98.41
2022-12-16T21:39:14.379Z,98.44
2022-12-16T21:42:01.523Z,98.44
2022-12-16T21:44:48.591Z,98.49
2022-12-16T21:47:35.998Z,98.51
2022-12-16T21:50:24.073Z,98.63
2022-12-16T21:53:11.416Z,98.71
2022-12-16T21:55:58.562Z,98.77
2022-12-16T21:58:45.611Z,98.83
2022-12-16T22:01:32.827Z,98.91
2022-12-16T22:04:20.097Z,99.02
2022-12-16T22:07:07.410Z,99.03
2022-12-16T22:13:02.154Z,98.81
2022-12-16T22:15:49.154Z,98.76
2022-12-16T22:18:37.637Z,98.72
2022-12-16T22:21:25.026Z,98.76
2022-12-16T22:24:12.310Z,98.82
2022-12-16T22:26:59.574Z,98.62
2022-12-16T22:29:46.567Z,98.69
2022-12-16T22:32:33.979Z,98.60
2022-12-16T22:35:21.220Z,98.63
2022-12-16T22:38:08.510Z,98.71
2022-12-16T22:40:56.506Z,98.83
2022-12-16T22:43:51.035Z,98.81
2022-12-16T22:46:39.053Z,98.74
2022-12-16T22:49:27.903Z,98.64
2022-12-16T22:52:19.412Z,98.73
2022-12-16T22:55:06.859Z,98.61
2022-12-16T22:57:53.931Z,98.54
2022-12-16T23:00:41.048Z,98.48
2022-12-16T23:03:35.128Z,98.31
2022-12-16T23:06:22.361Z,98.25
2022-12-16T23:09:09.783Z,98.32
2022-12-16T23:12:00.105Z,98.32
2022-12-16T23:14:47.326Z,98.28
2022-12-16T23:17:34.332Z,98.51
2022-12-16T23:20:22.708Z,98.55
2022-12-16T23:23:12.815Z,98.51
2022-12-16T23:26:00.221Z,98.50
2022-12-16T23:28:47.252Z,98.73
2022-12-16T23:31:34.573Z,98.54
2022-12-16T23:34:21.782Z,98.28
2022-12-16T23:37:09.790Z,98.20
2022-12-16T23:39:56.897Z,98.18
2022-12-16T23:42:43.990Z,98.16
2022-12-16T23:45:31.229Z,97.96
2022-12-16T23:48:26.201Z,98.01
2022-12-16T23:51:14.554Z,97.92
2022-12-16T23:54:01.853Z,98.16
2022-12-16T23:56:49.081Z,98.04
2022-12-16T23:59:36.507Z,98.09
